Pagina principale
METAR-TAF:

METAR-TAF

Aeroporti :

Schaffen

Diest, Belgio

latitudine: 51-00N, longitudine: 005-04E, altezza: 30 m

Osservazione

Il bollettino è stato emesso 28 minuti fa, alle 00:55 UTC
Vento 3 kt da sud/sud-ovest
Temperature 5°C
Umidità 65%
Pressione 1025 hPa
Visibilità 10 km o più

METAR: EBDT 240055Z AUTO 21003KT 9999 BKN110/// OVC160/// 05/M01 Q1025 BLU

Ora: 02:23 (01:23 UTC)


TAF: mancante

Osservazioni e previsioni meteorologiche di più di 4000 aeroporti (messaggi METAR e TAF).

Le stazioni disponibili sono rappresentate dai dischi gialli e rossi sulla carta.

Puntare il mouse per vedere il nome della stazione.

Clicca sopra per visualizzare le osservazioni e previsioni meteorologiche.

Per cambiare la mappa : fare clic sui pulsanti verdi con una croce nera per ingrandire, il pulsante verde con un trattino per diminuire, o sulla freccia verde per le mappe adiacenti.


METAR-TAF: